Time;durP1;ratioP1;P1;durP2;ratioP2;P2;SDS_P1;SDS_P2;PMS_P1;PMS_P2;Temp;Humidity;BMP_temperature;BMP_pressure;BME280_temperature;BME280_humidity;BME280_pressure;Samples;Min_cycle;Max_cycle;Signal;HPM_P1;HPM_P2
2022/04/26 03:37:12;;;;;;;10.88;7.40;;;;;;;2.60;87.33;100559.44;5021085;28;20049;-75
2022/04/26 03:39:39;;;;;;;9.35;6.45;;;;;;;2.55;87.67;100571.47;5020889;28;20439;-75
2022/04/26 03:42:05;;;;;;;12.43;8.13;;;;;;;2.51;86.46;100567.00;5022910;28;20107;-76
2022/04/26 03:44:31;;;;;;;12.20;8.75;;;;;;;2.39;87.01;100567.56;5018539;28;20140;-76
2022/04/26 03:46:57;;;;;;;11.48;9.25;;;;;;;2.34;88.10;100573.50;5022533;28;20025;-75
2022/04/26 03:49:23;;;;;;;12.18;8.20;;;;;;;2.36;89.07;100572.69;5017757;28;20021;-75
2022/04/26 03:51:48;;;;;;;11.30;9.52;;;;;;;2.39;88.96;100580.59;5018119;28;20033;-76
2022/04/26 03:54:13;;;;;;;11.00;6.68;;;;;;;2.38;88.97;100581.44;5022531;28;20040;-76
2022/04/26 03:56:39;;;;;;;9.75;6.82;;;;;;;2.38;88.32;100577.94;5013328;28;20046;-76
2022/04/26 03:59:04;;;;;;;11.63;8.43;;;;;;;2.34;87.46;100583.91;5022509;28;20057;-76
2022/04/26 04:01:29;;;;;;;9.43;6.90;;;;;;;2.28;86.47;100583.72;5019821;28;20084;-76
2022/04/26 04:03:55;;;;;;;11.05;6.93;;;;;;;2.25;86.32;100573.22;5020247;28;20105;-76
2022/04/26 04:06:22;;;;;;;11.40;8.52;;;;;;;2.26;86.95;100583.69;5021851;28;20041;-76
2022/04/26 04:08:47;;;;;;;12.45;8.38;;;;;;;2.26;87.46;100580.22;5020654;28;20033;-76
2022/04/26 04:11:13;;;;;;;9.45;6.38;;;;;;;2.33;87.84;100576.91;5018933;28;20127;-76
2022/04/26 04:13:38;;;;;;;13.02;8.98;;;;;;;2.43;87.58;100581.53;5018482;28;20408;-75
2022/04/26 04:16:04;;;;;;;9.02;6.88;;;;;;;2.51;87.69;100576.53;5019890;28;20473;-76
2022/04/26 04:21:13;;;;;;;8.18;6.25;;;;;;;2.67;87.36;100583.06;5020460;28;20045;-75
2022/04/26 04:23:40;;;;;;;11.23;8.07;;;;;;;2.75;87.14;100585.03;5020226;28;20053;-76
2022/04/26 04:26:06;;;;;;;11.02;7.70;;;;;;;2.83;86.67;100588.72;5020585;28;20041;-77
2022/04/26 04:28:32;;;;;;;12.50;8.60;;;;;;;2.91;86.80;100588.91;5013530;28;20038;-75
2022/04/26 04:30:58;;;;;;;9.27;6.72;;;;;;;2.92;87.10;100598.50;5013617;28;20042;-76
2022/04/26 04:33:24;;;;;;;10.73;7.47;;;;;;;2.93;87.08;100597.63;5016622;28;20091;-76
2022/04/26 04:35:49;;;;;;;8.15;5.93;;;;;;;2.91;86.63;100599.34;5012561;28;20036;-75
2022/04/26 04:38:14;;;;;;;7.80;6.18;;;;;;;2.88;86.84;100594.03;5017665;28;20034;-76
2022/04/26 04:40:40;;;;;;;7.72;6.05;;;;;;;2.91;86.73;100591.53;5014820;23;20077;-74
2022/04/26 04:43:05;;;;;;;12.65;7.55;;;;;;;3.00;87.25;100596.97;4987988;28;20030;-74
2022/04/26 04:45:31;;;;;;;9.45;6.93;;;;;;;3.11;87.06;100597.22;5000065;28;20042;-74
2022/04/26 04:47:56;;;;;;;9.10;6.57;;;;;;;3.21;86.79;100603.56;4983730;28;20497;-74
2022/04/26 04:50:21;;;;;;;13.57;7.47;;;;;;;3.31;86.77;100607.28;4979562;28;20515;-74
2022/04/26 04:52:47;;;;;;;10.00;7.78;;;;;;;3.40;86.47;100613.59;4983635;28;20036;-74
2022/04/26 04:55:13;;;;;;;9.90;7.55;;;;;;;3.50;85.95;100612.97;4983718;28;20066;-75
2022/04/26 04:57:39;;;;;;;10.65;7.82;;;;;;;3.57;85.81;100613.13;4984225;28;20057;-74
2022/04/26 05:00:06;;;;;;;14.13;9.27;;;;;;;3.61;85.67;100620.19;4984849;28;20056;-74
2022/04/26 05:02:31;;;;;;;12.07;8.52;;;;;;;3.66;85.56;100621.16;4980731;28;20528;-74
2022/04/26 05:04:57;;;;;;;15.95;12.13;;;;;;;3.68;85.60;100622.09;4986612;28;20027;-74
2022/04/26 05:07:23;;;;;;;11.48;9.13;;;;;;;3.70;85.70;100623.00;4980774;28;20070;-74
2022/04/26 05:09:51;;;;;;;13.07;8.80;;;;;;;3.75;85.95;100629.22;4986123;28;20039;-74
2022/04/26 05:12:18;;;;;;;11.40;8.43;;;;;;;3.82;85.81;100638.06;4983054;28;20535;-74
2022/04/26 05:14:44;;;;;;;10.73;7.70;;;;;;;3.94;86.15;100631.38;4980943;28;20046;-74
2022/04/26 05:17:09;;;;;;;12.00;8.55;;;;;;;4.04;85.81;100634.22;4979622;28;20043;-74
2022/04/26 05:19:35;;;;;;;9.55;7.10;;;;;;;4.15;85.89;100633.59;4983083;28;20041;-74
2022/04/26 05:22:00;;;;;;;12.55;8.43;;;;;;;4.26;85.46;100636.44;4980864;28;20043;-74
2022/04/26 05:27:09;;;;;;;14.00;8.45;;;;;;;4.50;85.13;100636.03;4981146;28;20121;-74
2022/04/26 05:29:36;;;;;;;16.25;10.05;;;;;;;4.57;85.34;100631.84;4981429;28;20100;-74
2022/04/26 05:32:01;;;;;;;12.85;9.23;;;;;;;4.72;84.82;100629.53;4983914;28;20412;-74
2022/04/26 05:34:28;;;;;;;13.23;9.23;;;;;;;4.79;84.73;100626.19;4986093;28;20038;-74
2022/04/26 05:36:53;;;;;;;11.35;8.68;;;;;;;4.92;84.64;100615.94;4992447;28;20038;-74
2022/04/26 05:39:18;;;;;;;13.07;9.75;;;;;;;5.04;84.45;100616.16;4988501;28;20045;-74
2022/04/26 05:41:44;;;;;;;12.98;9.38;;;;;;;5.16;84.33;100626.84;4989209;28;20042;-74
2022/04/26 05:44:09;;;;;;;14.90;9.20;;;;;;;5.27;84.17;100624.41;4988874;28;20038;-74
2022/04/26 05:46:35;;;;;;;13.82;11.32;;;;;;;5.40;83.86;100628.13;4982866;28;20091;-74
2022/04/26 05:49:01;;;;;;;13.55;11.07;;;;;;;5.45;84.48;100619.47;4987275;28;20034;-74
2022/04/26 05:51:26;;;;;;;15.95;11.15;;;;;;;5.56;83.98;100626.63;4988205;28;20528;-74
2022/04/26 05:53:51;;;;;;;16.05;11.63;;;;;;;5.63;84.23;100623.22;4983434;28;20467;-74
2022/04/26 05:56:16;;;;;;;20.25;11.70;;;;;;;5.74;84.10;100618.13;4990009;28;20520;-74
2022/04/26 05:58:42;;;;;;;16.20;12.32;;;;;;;5.86;84.19;100623.56;4982702;28;20093;-74
2022/04/26 06:01:07;;;;;;;16.20;12.18;;;;;;;5.97;83.89;100619.38;4987983;28;20082;-74
2022/04/26 06:03:34;;;;;;;17.25;12.32;;;;;;;6.10;83.82;100609.97;4986101;28;20026;-74
2022/04/26 06:05:59;;;;;;;19.42;14.75;;;;;;;6.20;83.88;100613.59;4990117;28;20142;-74
2022/04/26 06:08:24;;;;;;;17.23;13.82;;;;;;;6.33;84.04;100607.63;4989114;28;20487;-74
2022/04/26 06:10:50;;;;;;;18.52;15.40;;;;;;;6.49;83.70;100604.31;4986627;28;20505;-74
2022/04/26 06:13:15;;;;;;;17.58;13.93;;;;;;;6.61;83.40;100610.59;4984920;28;20122;-74
2022/04/26 06:15:40;;;;;;;23.30;17.63;;;;;;;6.75;83.72;100606.38;4988209;28;20085;-74
2022/04/26 06:18:06;;;;;;;21.35;17.05;;;;;;;6.89;83.82;100609.13;4988286;28;20074;-74
2022/04/26 06:22:32;;;;;;;20.17;17.17;;;;;;;7.08;83.39;100611.09;5107169;27;20371;-74
2022/04/26 06:24:57;;;;;;;23.02;18.40;;;;;;;7.20;83.05;100611.19;5075109;28;20487;-74
2022/04/26 06:27:23;;;;;;;21.60;16.85;;;;;;;7.32;82.77;100607.78;5075131;28;20411;-74
2022/04/26 06:29:48;;;;;;;29.58;22.80;;;;;;;7.44;82.90;100610.53;5067269;28;20498;-74
2022/04/26 06:32:14;;;;;;;28.33;21.98;;;;;;;7.54;82.88;100611.44;5042175;28;20037;-74
2022/04/26 06:34:39;;;;;;;27.75;22.58;;;;;;;7.67;82.61;100609.78;5043785;28;20108;-74
2022/04/26 06:37:05;;;;;;;25.80;20.88;;;;;;;7.78;82.36;100615.13;5043509;28;20033;-74
2022/04/26 06:39:30;;;;;;;26.55;20.73;;;;;;;7.89;82.61;100603.81;5043975;28;20044;-73
2022/04/26 06:41:55;;;;;;;31.90;25.95;;;;;;;8.01;82.66;100617.88;5044169;28;20029;-74
2022/04/26 06:44:21;;;;;;;31.92;24.95;;;;;;;8.12;82.13;100611.84;5040969;28;20041;-74
2022/04/26 06:46:46;;;;;;;29.88;24.63;;;;;;;8.19;82.01;100609.22;5038962;28;20049;-74
2022/04/26 06:49:12;;;;;;;32.17;24.33;;;;;;;8.25;82.42;100610.16;5042599;28;20065;-74
2022/04/26 06:51:43;;;;;;;33.88;27.25;;;;;;;8.37;81.48;100611.94;5041212;28;20030;-74
2022/04/26 06:54:08;;;;;;;33.78;26.48;;;;;;;8.49;81.39;100611.16;5040657;28;20111;-74
2022/04/26 06:56:33;;;;;;;30.02;22.65;;;;;;;8.57;81.30;100609.44;5038320;28;20124;-74
2022/04/26 06:58:59;;;;;;;28.60;21.95;;;;;;;8.69;80.98;100604.19;5042353;28;20377;-74
2022/04/26 07:01:24;;;;;;;27.02;22.05;;;;;;;8.69;80.75;100603.31;5037802;28;20049;-74
2022/04/26 07:03:50;;;;;;;26.80;22.05;;;;;;;8.84;80.43;100603.34;5038939;28;20029;-74
2022/04/26 07:06:15;;;;;;;28.25;21.05;;;;;;;8.93;80.46;100607.75;5038103;28;20037;-74
2022/04/26 07:08:40;;;;;;;24.98;19.23;;;;;;;9.02;79.97;100613.03;5035611;28;20056;-74
2022/04/26 07:11:06;;;;;;;24.52;19.40;;;;;;;9.15;79.96;100613.94;5035699;28;20387;-74
2022/04/26 07:13:31;;;;;;;25.48;19.15;;;;;;;9.28;78.54;100614.81;5039582;28;20039;-74
2022/04/26 07:15:57;;;;;;;23.70;19.85;;;;;;;9.41;78.69;100617.44;5040866;28;20445;-74
2022/04/26 07:18:22;;;;;;;37.50;28.88;;;;;;;9.52;78.99;100614.81;5038464;28;20427;-74
2022/04/26 07:20:47;;;;;;;44.38;31.55;;;;;;;9.64;78.64;100619.19;5042175;28;20037;-74
2022/04/26 07:23:12;;;;;;;38.13;30.33;;;;;;;9.64;78.64;100617.44;5042376;28;20086;-74
2022/04/26 07:25:39;;;;;;;46.55;34.92;;;;;;;9.81;78.38;100624.44;5036390;28;20375;-74
2022/04/26 07:28:05;;;;;;;43.85;32.58;;;;;;;9.94;78.07;100618.28;5039423;28;20037;-74
2022/04/26 07:30:34;;;;;;;33.22;26.15;;;;;;;10.06;77.38;100618.25;5037243;28;20083;-74
2022/04/26 07:35:48;;;;;;;31.92;24.52;;;;;;;10.33;76.65;100620.84;5028846;28;20049;-74
2022/04/26 07:38:14;;;;;;;28.75;23.13;;;;;;;10.43;76.12;100612.00;5028511;28;20033;-74
2022/04/26 07:40:39;;;;;;;29.63;22.25;;;;;;;10.53;75.85;100614.59;5023382;28;20064;-74
2022/04/26 07:43:05;;;;;;;26.95;20.70;;;;;;;10.65;75.07;100612.78;5032300;28;20420;-74
2022/04/26 07:45:31;;;;;;;29.02;22.73;;;;;;;10.71;74.70;100612.72;5025662;28;20037;-74
2022/04/26 07:47:58;;;;;;;27.48;21.90;;;;;;;10.83;74.19;100612.66;5027230;28;20545;-74
2022/04/26 07:50:23;;;;;;;27.35;22.13;;;;;;;10.92;74.20;100617.00;5029657;28;20506;-74
2022/04/26 07:52:49;;;;;;;22.35;17.15;;;;;;;10.99;73.05;100612.56;5025119;28;20041;-74
2022/04/26 07:55:14;;;;;;;21.02;16.10;;;;;;;11.08;72.83;100620.41;5030666;28;20037;-74
2022/04/26 07:57:39;;;;;;;18.30;15.45;;;;;;;11.20;72.67;100623.00;5022544;28;20033;-74
2022/04/26 08:00:06;;;;;;;21.67;15.90;;;;;;;11.31;71.87;100621.13;5028508;28;20492;-74
2022/04/26 08:02:37;;;;;;;21.92;17.98;;;;;;;11.40;71.66;100618.44;5027318;28;20061;-74
2022/04/26 08:05:03;;;;;;;21.58;17.13;;;;;;;11.53;71.66;100618.34;5030660;28;20068;-74
2022/04/26 08:07:29;;;;;;;17.08;13.43;;;;;;;11.62;70.28;100620.88;5021558;28;20032;-74
2022/04/26 08:09:57;;;;;;;21.38;15.15;;;;;;;11.73;69.91;100619.00;5026102;28;20029;-74
2022/04/26 08:12:22;;;;;;;16.38;12.90;;;;;;;11.80;69.07;100620.72;5026576;28;20045;-75
2022/04/26 08:14:48;;;;;;;23.55;16.50;;;;;;;11.91;68.48;100622.41;5025617;28;20040;-75
2022/04/26 08:17:15;;;;;;;17.80;14.35;;;;;;;12.01;68.30;100624.06;5028495;28;20064;-75
2022/04/26 08:19:43;;;;;;;16.23;13.73;;;;;;;12.15;67.87;100632.72;5023109;28;20041;-75
2022/04/26 08:22:09;;;;;;;17.08;12.82;;;;;;;12.22;66.78;100626.47;5022745;28;20037;-75
2022/04/26 08:27:25;;;;;;;32.90;20.33;;;;;;;12.34;66.22;100628.13;5023968;28;20030;-75
2022/04/26 08:29:52;;;;;;;20.23;14.77;;;;;;;12.52;65.91;100627.00;5024793;28;20037;-75
2022/04/26 08:32:18;;;;;;;12.63;9.85;;;;;;;12.65;65.09;100620.66;5023504;28;20131;-75
2022/04/26 08:34:43;;;;;;;12.52;9.40;;;;;;;12.82;65.05;100620.44;5029679;28;20547;-75
2022/04/26 08:37:09;;;;;;;10.23;7.57;;;;;;;12.97;63.99;100623.75;5028363;28;20540;-75
2022/04/26 08:39:34;;;;;;;10.80;7.95;;;;;;;13.05;62.87;100621.88;5030410;28;20455;-75
2022/04/26 08:42:02;;;;;;;11.52;7.97;;;;;;;13.16;61.95;100620.81;5024746;28;20053;-75
2022/04/26 08:44:28;;;;;;;10.52;8.05;;;;;;;13.30;61.93;100625.03;5022350;28;20081;-75
2022/04/26 08:52:24;;;;;;;10.35;6.93;;;;;;;13.79;57.88;100617.13;5025264;28;20045;-75
2022/04/26 08:54:49;;;;;;;11.07;6.93;;;;;;;13.94;59.03;100620.44;5027602;28;20041;-75
2022/04/26 08:57:15;;;;;;;9.25;7.15;;;;;;;14.05;58.23;100618.44;5030446;28;20250;-75
2022/04/26 08:59:50;;;;;;;10.23;7.00;;;;;;;14.23;57.51;100622.53;5021967;28;20045;-75
2022/04/26 09:02:18;;;;;;;11.98;7.63;;;;;;;14.50;58.17;100615.78;5021791;28;20037;-75
2022/04/26 09:04:44;;;;;;;11.38;7.40;;;;;;;14.86;56.58;100611.47;5026821;28;20069;-75
2022/04/26 09:07:29;;;;;;;10.02;7.43;;;;;;;15.06;55.58;100607.47;5026170;28;20021;-75
2022/04/26 09:10:12;;;;;;;12.25;10.30;;;;;;;15.19;53.06;100608.94;5027705;28;20493;-75
2022/04/26 09:12:59;;;;;;;9.57;6.65;;;;;;;15.21;51.81;100615.09;5022375;28;20485;-75
2022/04/26 09:15:32;;;;;;;7.68;5.45;;;;;;;15.38;52.81;100613.78;5022196;28;20133;-75
2022/04/26 09:18:20;;;;;;;6.97;4.95;;;;;;;15.81;50.86;100608.31;5020410;28;20088;-75
2022/04/26 09:20:48;;;;;;;6.93;4.57;;;;;;;15.99;50.18;100615.78;5020166;28;20034;-75
2022/04/26 09:23:16;;;;;;;6.38;4.38;;;;;;;16.26;50.05;100612.41;5025042;28;20553;-75
2022/04/26 09:25:42;;;;;;;9.85;4.85;;;;;;;16.28;48.94;100607.91;5024736;28;20084;-75
2022/04/26 09:28:08;;;;;;;8.13;4.60;;;;;;;16.21;48.57;100600.09;5019695;28;20053;-76
2022/04/26 09:30:33;;;;;;;9.18;5.38;;;;;;;16.38;49.37;100602.28;5021453;28;20496;-75
2022/04/26 09:32:59;;;;;;;6.30;4.90;;;;;;;16.57;48.88;100613.25;5022908;28;20116;-75
2022/04/26 09:35:29;;;;;;;7.03;4.88;;;;;;;16.49;49.03;100615.28;5018893;28;20508;-76
2022/04/26 09:37:55;;;;;;;9.98;5.30;;;;;;;16.55;47.58;100609.75;5020744;28;20055;-75
2022/04/26 09:40:21;;;;;;;9.10;5.40;;;;;;;16.58;46.86;100620.34;5021736;28;20041;-75
2022/04/26 09:42:50;;;;;;;6.40;4.70;;;;;;;16.38;48.20;100620.06;5021453;28;20099;-75
2022/04/26 09:45:16;;;;;;;7.82;4.95;;;;;;;16.06;47.87;100616.50;5029637;28;20071;-75
2022/04/26 09:47:43;;;;;;;5.88;4.22;;;;;;;15.91;48.83;100616.94;5024046;28;20533;-75
2022/04/26 09:50:11;;;;;;;6.57;4.65;;;;;;;15.95;47.88;100619.44;5023648;28;20407;-75
2022/04/26 09:52:37;;;;;;;6.72;4.88;;;;;;;15.77;48.51;100620.81;5025372;28;20586;-75
2022/04/26 09:55:05;;;;;;;7.43;4.47;;;;;;;16.19;48.64;100625.00;5022900;28;20035;-75
2022/04/26 09:57:35;;;;;;;5.70;3.83;;;;;;;16.76;47.97;100618.03;5025308;28;20121;-75
2022/04/26 10:00:02;;;;;;;5.72;3.58;;;;;;;16.98;45.57;100616.50;5025469;28;20040;-76
2022/04/26 10:02:36;;;;;;;7.15;3.38;;;;;;;17.18;45.35;100615.00;5027154;28;20099;-76
2022/04/26 10:05:06;;;;;;;4.68;2.72;;;;;;;17.55;46.04;100619.13;5023453;28;20030;-76
2022/04/26 10:07:44;;;;;;;5.43;3.30;;;;;;;17.81;42.90;100616.47;5022743;28;20029;-76
2022/04/26 10:10:10;;;;;;;4.38;2.95;;;;;;;17.92;44.13;100624.09;5028603;28;20029;-76
2022/04/26 10:12:37;;;;;;;5.03;3.15;;;;;;;18.48;43.31;100612.31;5019588;28;20141;-76
2022/04/26 10:15:04;;;;;;;25.85;23.27;;;;;;;19.04;42.29;100603.91;5022018;28;20497;-76
2022/04/26 10:17:32;;;;;;;4.60;2.97;;;;;;;19.22;40.10;100615.66;5021246;28;20042;-76
2022/04/26 10:19:58;;;;;;;4.60;2.85;;;;;;;19.54;40.88;100614.31;5020057;28;20112;-77
2022/04/26 10:22:52;;;;;;;5.25;2.90;;;;;;;19.53;39.47;100612.59;5021417;28;20488;-76
2022/04/26 10:25:21;;;;;;;6.43;2.10;;;;;;;19.72;39.79;100609.16;5022967;28;20041;-76
2022/04/26 10:28:26;;;;;;;3.03;1.90;;;;;;;19.10;38.22;100605.44;5021596;28;20046;-76
2022/04/26 10:30:53;;;;;;;3.25;1.77;;;;;;;19.42;38.54;100607.69;5022627;28;20037;-76
2022/04/26 10:33:38;;;;;;;2.72;1.83;;;;;;;19.75;36.70;100604.53;5019333;28;20092;-76
2022/04/26 10:36:28;;;;;;;3.00;1.77;;;;;;;19.90;36.38;100613.72;5019411;28;20107;-76
2022/04/26 10:39:05;;;;;;;2.97;1.80;;;;;;;20.13;36.52;100604.69;5024461;28;20026;-76
2022/04/26 10:41:35;;;;;;;4.93;2.03;;;;;;;20.28;36.34;100600.47;5020951;28;20459;-76
2022/04/26 10:44:22;;;;;;;4.03;2.00;;;;;;;20.13;35.99;100612.72;5020200;28;20366;-77
2022/04/26 10:47:07;;;;;;;3.17;1.92;;;;;;;20.18;35.17;100607.19;5028157;28;20123;-77
2022/04/26 10:49:33;;;;;;;4.53;3.03;;;;;;;20.28;36.47;100609.38;5012360;28;20518;-77
2022/04/26 10:52:13;;;;;;;4.50;2.92;;;;;;;20.20;35.30;100607.94;5022366;28;20108;-77
2022/04/26 10:54:45;;;;;;;3.60;2.60;;;;;;;19.92;35.49;100603.84;5027024;28;20057;-77
2022/04/26 10:57:11;;;;;;;3.95;2.60;;;;;;;20.05;36.07;100607.72;5023028;28;20037;-77
2022/04/26 10:59:42;;;;;;;4.22;1.80;;;;;;;20.08;35.74;100606.69;5019141;28;20499;-77
2022/04/26 11:02:19;;;;;;;3.60;2.33;;;;;;;20.32;36.58;100599.38;5029074;28;20037;-76
2022/04/26 11:04:45;;;;;;;4.28;3.10;;;;;;;20.51;36.39;100605.63;5020480;28;20076;-76
2022/04/26 11:07:16;;;;;;;3.70;2.53;;;;;;;20.76;34.51;100600.03;5019324;28;20052;-76
2022/04/26 11:09:49;;;;;;;3.35;2.15;;;;;;;20.62;33.76;100590.88;5024333;28;20472;-76
2022/04/26 11:12:18;;;;;;;3.20;1.88;;;;;;;20.74;34.53;100601.03;5020830;28;20388;-76
2022/04/26 11:14:45;;;;;;;3.72;2.42;;;;;;;20.87;35.34;100602.19;5025489;28;20041;-76
2022/04/26 11:17:10;;;;;;;4.65;2.40;;;;;;;20.99;35.43;100595.38;5024026;28;20037;-76
2022/04/26 11:19:46;;;;;;;4.88;2.20;;;;;;;21.07;33.75;100592.31;5023807;28;20025;-76
2022/04/26 11:22:15;;;;;;;3.08;2.00;;;;;;;20.88;33.07;100597.69;5022268;28;20042;-76
2022/04/26 11:30:24;;;;;;;6.28;4.35;;;;;;;20.38;35.24;100599.06;5023040;28;20117;-76
2022/04/26 11:32:50;;;;;;;3.78;2.78;;;;;;;20.76;35.04;100600.03;5023063;28;20041;-76
2022/04/26 11:35:17;;;;;;;4.10;2.80;;;;;;;21.23;34.30;100601.34;5025504;28;20029;-76
2022/04/26 11:37:44;;;;;;;4.43;3.58;;;;;;;21.59;33.88;100600.50;5034287;28;20405;-76
2022/04/26 11:40:11;;;;;;;7.18;4.50;;;;;;;22.02;32.94;100592.88;5023036;28;20045;-76
2022/04/26 11:42:37;;;;;;;4.72;3.67;;;;;;;21.96;31.81;100598.59;5028474;28;20068;-76
2022/04/26 11:45:06;;;;;;;3.08;2.25;;;;;;;21.63;30.88;100602.94;5027798;28;20502;-76
2022/04/26 11:47:40;;;;;;;4.22;2.47;;;;;;;21.86;31.01;100599.06;5024460;28;20038;-76
2022/04/26 11:50:14;;;;;;;4.35;2.20;;;;;;;22.03;30.91;100595.50;5030867;28;20046;-76
2022/04/26 11:52:41;;;;;;;4.07;2.58;;;;;;;22.29;31.33;100591.44;5026697;28;20034;-76
2022/04/26 11:55:07;;;;;;;5.35;2.70;;;;;;;22.48;30.21;100593.16;5024401;28;20045;-76
2022/04/26 11:57:32;;;;;;;3.42;2.45;;;;;;;22.71;30.64;100589.16;5024892;28;20041;-76
2022/04/26 11:59:59;;;;;;;5.50;3.10;;;;;;;22.43;30.72;100588.03;5031744;28;20179;-76
2022/04/26 12:02:25;;;;;;;4.53;2.83;;;;;;;22.86;31.12;100580.25;5024123;28;20040;-76
2022/04/26 12:04:52;;;;;;;3.90;2.95;;;;;;;23.32;30.13;100587.56;5024618;28;20033;-76
2022/04/26 12:07:18;;;;;;;4.45;2.90;;;;;;;23.58;31.05;100594.97;5020379;28;20037;-77
2022/04/26 12:09:43;;;;;;;4.07;3.00;;;;;;;23.54;30.48;100592.53;5024725;28;20040;-76
2022/04/26 12:12:12;;;;;;;3.75;2.80;;;;;;;23.32;29.53;100588.41;5022183;28;20455;-76
2022/04/26 12:14:41;;;;;;;4.22;2.97;;;;;;;24.00;29.03;100584.41;5022494;28;20038;-76
2022/04/26 12:17:22;;;;;;;3.50;2.55;;;;;;;23.89;29.10;100582.34;5029012;28;20575;-76
2022/04/26 12:19:51;;;;;;;5.07;3.97;;;;;;;23.71;29.38;100583.44;5022390;28;20092;-76
2022/04/26 12:22:25;;;;;;;3.50;2.30;;;;;;;23.10;29.25;100577.13;5022818;28;20148;-76
2022/04/26 12:24:51;;;;;;;4.50;3.10;;;;;;;22.75;29.64;100571.91;5021659;28;20038;-76
2022/04/26 12:27:19;;;;;;;4.38;3.10;;;;;;;22.84;29.09;100567.81;5025647;28;20451;-76
2022/04/26 12:29:48;;;;;;;6.18;5.30;;;;;;;23.45;29.40;100572.41;5027336;28;20100;-76
2022/04/26 12:32:23;;;;;;;6.00;4.30;;;;;;;23.98;28.25;100565.63;5027880;28;20480;-77
2022/04/26 12:34:50;;;;;;;5.80;3.80;;;;;;;24.67;27.72;100564.00;5023865;28;20038;-77
2022/04/26 12:37:21;;;;;;;6.30;3.75;;;;;;;24.65;26.32;100565.06;5020744;28;20049;-76
2022/04/26 12:40:00;;;;;;;5.00;4.43;;;;;;;24.52;27.22;100558.72;5024390;28;20049;-77
2022/04/26 12:42:28;;;;;;;7.85;5.97;;;;;;;24.13;27.38;100557.53;5023145;28;20530;-77
2022/04/26 12:45:01;;;;;;;7.40;5.45;;;;;;;23.50;28.37;100558.63;5021270;28;20038;-77
2022/04/26 12:50:36;;;;;;;7.63;6.03;;;;;;;23.02;29.20;100552.50;5021571;28;20046;-76
2022/04/26 12:53:08;;;;;;;5.40;3.70;;;;;;;22.74;29.21;100548.63;5021808;28;20041;-76
2022/04/26 12:55:35;;;;;;;4.93;3.60;;;;;;;22.35;29.37;100552.63;5026686;28;20503;-76
2022/04/26 12:58:04;;;;;;;3.83;2.40;;;;;;;21.49;30.55;100553.56;5023540;28;20116;-76
2022/04/26 13:00:31;;;;;;;3.85;2.92;;;;;;;20.44;31.50;100555.94;5030069;28;20161;-76
2022/04/26 13:03:00;;;;;;;6.82;5.57;;;;;;;20.05;32.85;100554.13;5021066;28;20073;-76
2022/04/26 13:05:26;;;;;;;16.10;14.32;;;;;;;20.22;33.67;100555.16;5026615;28;20056;-76
2022/04/26 13:07:52;;;;;;;14.82;11.10;;;;;;;20.24;33.93;100553.28;5019351;28;20026;-76
2022/04/26 13:10:19;;;;;;;7.80;7.00;;;;;;;20.35;33.62;100550.97;5028529;28;20083;-76
2022/04/26 13:12:45;;;;;;;5.78;4.00;;;;;;;20.08;33.29;100553.97;5022415;28;20056;-75
2022/04/26 13:15:10;;;;;;;5.68;3.22;;;;;;;20.10;32.62;100549.44;5023436;28;20045;-76
2022/04/26 13:17:37;;;;;;;5.22;2.90;;;;;;;20.02;32.82;100548.91;5028245;28;20049;-76
2022/04/26 13:20:04;;;;;;;6.75;5.50;;;;;;;20.26;33.53;100551.41;5022673;28;20388;-76
2022/04/26 13:22:30;;;;;;;5.93;4.80;;;;;;;20.69;32.91;100544.91;5023578;28;20038;-76
2022/04/26 13:24:56;;;;;;;5.65;4.13;;;;;;;20.85;32.17;100536.13;5023916;28;20038;-76
2022/04/26 13:27:22;;;;;;;5.85;3.70;;;;;;;20.91;32.06;100541.22;5027396;28;20044;-76
2022/04/26 13:29:49;;;;;;;7.05;4.90;;;;;;;21.23;32.23;100542.31;5023474;28;20034;-76
2022/04/26 13:32:17;;;;;;;6.88;5.97;;;;;;;21.64;31.87;100539.34;5020377;28;20040;-76
2022/04/26 13:34:43;;;;;;;7.35;5.90;;;;;;;21.56;31.66;100542.44;5022237;28;20083;-76
2022/04/26 13:37:09;;;;;;;11.32;6.55;;;;;;;21.99;30.84;100539.31;5028451;28;20039;-76
2022/04/26 13:39:35;;;;;;;6.43;5.03;;;;;;;21.88;30.42;100540.75;5020866;28;20042;-76
2022/04/26 13:42:00;;;;;;;7.28;6.05;;;;;;;22.00;30.51;100535.66;5022201;28;20400;-76
2022/04/26 13:44:25;;;;;;;7.00;4.97;;;;;;;21.84;29.64;100536.47;5021793;28;20084;-76
2022/04/26 13:46:52;;;;;;;4.60;3.40;;;;;;;20.78;30.17;100538.28;5021314;28;20385;-76
2022/04/26 13:49:18;;;;;;;5.45;3.75;;;;;;;21.16;30.51;100535.50;5022788;28;20037;-76
2022/04/26 13:51:43;;;;;;;4.03;2.78;;;;;;;21.61;30.89;100539.50;5022071;28;20029;-76
2022/04/26 13:54:08;;;;;;;4.00;3.03;;;;;;;22.60;29.60;100535.97;5029480;28;20063;-76
2022/04/26 13:56:34;;;;;;;5.00;4.13;;;;;;;24.20;27.81;100531.94;5026392;28;20048;-76
2022/04/26 13:58:59;;;;;;;4.20;2.80;;;;;;;24.43;26.97;100525.94;5026003;28;20034;-76
2022/04/26 14:01:24;;;;;;;8.07;6.57;;;;;;;23.97;26.75;100534.25;5026913;28;20141;-76
2022/04/26 14:03:50;;;;;;;4.43;3.40;;;;;;;23.36;27.89;100533.41;5020624;28;20033;-76
2022/04/26 14:06:21;;;;;;;4.82;3.33;;;;;;;22.62;28.92;100533.22;5018048;28;20037;-76
2022/04/26 14:08:48;;;;;;;5.88;4.80;;;;;;;22.53;29.93;100534.56;5025179;28;20037;-77
2022/04/26 14:11:15;;;;;;;4.65;3.78;;;;;;;23.86;27.76;100527.78;5025050;28;20484;-76
2022/04/26 14:21:51;;;;;;;4.45;3.35;;;;;;;23.97;25.82;100534.25;5018375;28;20038;-76
2022/04/26 14:24:17;;;;;;;4.00;2.97;;;;;;;24.13;26.04;100530.56;5022511;28;20041;-76
2022/04/26 14:26:42;;;;;;;4.20;3.15;;;;;;;23.88;26.65;100526.72;5020032;28;20038;-75
2022/04/26 14:29:08;;;;;;;5.40;3.45;;;;;;;23.16;26.69;100534.59;5026052;28;20048;-76
2022/04/26 14:31:35;;;;;;;5.30;4.65;;;;;;;22.95;26.92;100522.31;5025874;28;20112;-76
2022/04/26 14:34:01;;;;;;;5.65;3.80;;;;;;;22.84;27.27;100520.25;5025517;28;20099;-76
2022/04/26 14:36:26;;;;;;;6.78;3.10;;;;;;;22.31;28.18;100529.53;5021115;28;20492;-76
2022/04/26 14:38:51;;;;;;;5.30;3.70;;;;;;;21.82;29.15;100527.66;5026210;28;20443;-76
2022/04/26 14:41:17;;;;;;;3.75;2.72;;;;;;;21.73;29.53;100528.13;5021188;28;20495;-76
2022/04/26 14:43:42;;;;;;;4.15;2.50;;;;;;;21.63;29.45;100532.25;5044527;28;20397;-76
2022/04/26 14:46:07;;;;;;;4.20;2.95;;;;;;;22.40;29.24;100523.66;5033708;28;20056;-76
2022/04/26 14:48:33;;;;;;;8.93;5.95;;;;;;;24.33;27.43;100519.41;5029781;28;20033;-76
2022/04/26 14:50:58;;;;;;;8.18;6.03;;;;;;;25.19;26.60;100513.84;5030411;28;20036;-76
2022/04/26 14:53:24;;;;;;;7.05;6.25;;;;;;;24.52;26.88;100520.94;5032248;28;20038;-76
2022/04/26 14:55:49;;;;;;;7.82;6.18;;;;;;;24.37;26.89;100520.09;5029782;28;20034;-76
2022/04/26 14:58:14;;;;;;;6.25;4.85;;;;;;;24.32;26.64;100520.38;5025124;28;20048;-76
2022/04/26 15:00:41;;;;;;;7.25;6.55;;;;;;;26.09;24.85;100520.22;5024975;28;20485;-76
2022/04/26 15:03:06;;;;;;;7.63;6.13;;;;;;;27.09;23.16;100516.53;5027184;28;20454;-76
2022/04/26 15:05:32;;;;;;;5.50;4.95;;;;;;;27.46;22.97;100516.47;5024214;28;20038;-76
2022/04/26 15:10:41;;;;;;;5.30;3.50;;;;;;;27.95;20.29;100514.50;5021840;28;20038;-76
2022/04/26 15:18:35;;;;;;;5.28;4.50;;;;;;;28.08;21.13;100517.09;5029263;28;20041;-76
2022/04/26 15:21:02;;;;;;;5.22;4.72;;;;;;;28.76;20.31;100507.94;5030036;28;20550;-76
2022/04/26 15:23:28;;;;;;;7.35;3.95;;;;;;;28.38;20.43;100522.78;5032760;28;20033;-76
2022/04/26 15:25:55;;;;;;;4.05;2.20;;;;;;;26.72;21.72;100523.81;5031948;28;20041;-76
2022/04/26 15:28:21;;;;;;;3.67;2.00;;;;;;;25.53;23.07;100525.06;5024512;28;20044;-76
2022/04/26 15:30:49;;;;;;;3.10;2.20;;;;;;;24.72;24.45;100525.94;5020032;28;20477;-76
2022/04/26 15:33:14;;;;;;;3.88;2.30;;;;;;;23.87;24.86;100532.19;5025501;28;20042;-76
2022/04/26 15:35:42;;;;;;;3.53;2.00;;;;;;;23.02;26.22;100537.19;5026428;28;20032;-76
2022/04/26 15:38:12;;;;;;;4.20;2.50;;;;;;;22.45;26.93;100531.44;5026133;28;20025;-76
2022/04/26 15:40:39;;;;;;;5.05;2.40;;;;;;;21.91;27.40;100522.75;5032295;28;20045;-76
2022/04/26 15:43:05;;;;;;;3.70;2.28;;;;;;;21.34;27.74;100528.34;5027874;28;20099;-76